sensor_id;sensor_type;location;lat;lon;timestamp;P1;durP1;ratioP1;P2;durP2;ratioP2
3755;SDS011;1893;52.526;13.360;2022-08-05T00:02:06;7.03;;;6.37;;
3755;SDS011;1893;52.526;13.360;2022-08-05T00:04:32;6.17;;;5.57;;
3755;SDS011;1893;52.526;13.360;2022-08-05T00:06:57;6.23;;;5.77;;
3755;SDS011;1893;52.526;13.360;2022-08-05T00:09:23;5.83;;;5.40;;
3755;SDS011;1893;52.526;13.360;2022-08-05T00:11:49;6.07;;;5.67;;
3755;SDS011;1893;52.526;13.360;2022-08-05T00:14:14;6.40;;;5.90;;
3755;SDS011;1893;52.526;13.360;2022-08-05T00:16:40;6.30;;;5.80;;
3755;SDS011;1893;52.526;13.360;2022-08-05T00:19:06;7.10;;;6.20;;
3755;SDS011;1893;52.526;13.360;2022-08-05T00:21:31;6.53;;;5.87;;
3755;SDS011;1893;52.526;13.360;2022-08-05T00:23:57;8.30;;;5.53;;
3755;SDS011;1893;52.526;13.360;2022-08-05T00:26:24;7.00;;;6.33;;
3755;SDS011;1893;52.526;13.360;2022-08-05T00:28:50;7.20;;;5.83;;
3755;SDS011;1893;52.526;13.360;2022-08-05T00:31:16;6.37;;;4.97;;
3755;SDS011;1893;52.526;13.360;2022-08-05T00:33:41;6.40;;;5.80;;
3755;SDS011;1893;52.526;13.360;2022-08-05T00:36:07;5.30;;;4.90;;
3755;SDS011;1893;52.526;13.360;2022-08-05T00:38:33;5.73;;;5.20;;
3755;SDS011;1893;52.526;13.360;2022-08-05T00:40:58;5.90;;;5.50;;
3755;SDS011;1893;52.526;13.360;2022-08-05T00:43:24;6.03;;;5.53;;
3755;SDS011;1893;52.526;13.360;2022-08-05T00:45:50;6.37;;;5.80;;
3755;SDS011;1893;52.526;13.360;2022-08-05T00:48:17;7.43;;;5.73;;
3755;SDS011;1893;52.526;13.360;2022-08-05T00:50:45;6.10;;;5.70;;
3755;SDS011;1893;52.526;13.360;2022-08-05T00:53:13;7.00;;;5.40;;
3755;SDS011;1893;52.526;13.360;2022-08-05T00:55:40;6.70;;;6.20;;
3755;SDS011;1893;52.526;13.360;2022-08-05T00:58:06;6.83;;;6.33;;
3755;SDS011;1893;52.526;13.360;2022-08-05T01:00:32;7.10;;;6.40;;
3755;SDS011;1893;52.526;13.360;2022-08-05T01:02:58;6.43;;;5.80;;
3755;SDS011;1893;52.526;13.360;2022-08-05T01:05:24;6.60;;;6.10;;
3755;SDS011;1893;52.526;13.360;2022-08-05T01:07:50;8.60;;;7.90;;
3755;SDS011;1893;52.526;13.360;2022-08-05T01:10:17;7.90;;;7.20;;
3755;SDS011;1893;52.526;13.360;2022-08-05T01:12:51;9.90;;;7.83;;
3755;SDS011;1893;52.526;13.360;2022-08-05T01:15:21;13.67;;;9.80;;
3755;SDS011;1893;52.526;13.360;2022-08-05T01:17:55;10.13;;;8.30;;
3755;SDS011;1893;52.526;13.360;2022-08-05T01:23:31;11.03;;;8.10;;
3755;SDS011;1893;52.526;13.360;2022-08-05T01:29:02;15.23;;;9.30;;
3755;SDS011;1893;52.526;13.360;2022-08-05T01:31:51;11.20;;;8.20;;
3755;SDS011;1893;52.526;13.360;2022-08-05T01:34:22;12.30;;;8.43;;
3755;SDS011;1893;52.526;13.360;2022-08-05T01:37:11;12.53;;;8.47;;
3755;SDS011;1893;52.526;13.360;2022-08-05T01:39:40;8.83;;;7.90;;
3755;SDS011;1893;52.526;13.360;2022-08-05T01:42:11;16.30;;;9.10;;
3755;SDS011;1893;52.526;13.360;2022-08-05T01:44:38;11.93;;;8.33;;
3755;SDS011;1893;52.526;13.360;2022-08-05T01:47:04;9.43;;;7.87;;
3755;SDS011;1893;52.526;13.360;2022-08-05T01:49:31;14.10;;;7.57;;
3755;SDS011;1893;52.526;13.360;2022-08-05T01:52:00;8.87;;;8.07;;
3755;SDS011;1893;52.526;13.360;2022-08-05T01:54:50;8.17;;;7.10;;
3755;SDS011;1893;52.526;13.360;2022-08-05T01:57:17;11.83;;;8.20;;
3755;SDS011;1893;52.526;13.360;2022-08-05T01:59:48;8.23;;;7.43;;
3755;SDS011;1893;52.526;13.360;2022-08-05T02:02:17;8.90;;;8.20;;
3755;SDS011;1893;52.526;13.360;2022-08-05T02:04:45;7.80;;;7.20;;
3755;SDS011;1893;52.526;13.360;2022-08-05T02:07:12;7.80;;;7.10;;
3755;SDS011;1893;52.526;13.360;2022-08-05T02:09:38;23.73;;;7.93;;
3755;SDS011;1893;52.526;13.360;2022-08-05T02:12:07;8.20;;;6.73;;
3755;SDS011;1893;52.526;13.360;2022-08-05T02:14:47;7.03;;;5.80;;
3755;SDS011;1893;52.526;13.360;2022-08-05T02:17:24;9.90;;;6.33;;
3755;SDS011;1893;52.526;13.360;2022-08-05T02:20:00;11.07;;;7.20;;
3755;SDS011;1893;52.526;13.360;2022-08-05T02:22:32;6.77;;;5.97;;
3755;SDS011;1893;52.526;13.360;2022-08-05T02:25:05;6.57;;;5.97;;
3755;SDS011;1893;52.526;13.360;2022-08-05T02:27:38;10.07;;;5.97;;
3755;SDS011;1893;52.526;13.360;2022-08-05T02:30:06;6.70;;;6.07;;
3755;SDS011;1893;52.526;13.360;2022-08-05T02:32:34;9.90;;;6.17;;
3755;SDS011;1893;52.526;13.360;2022-08-05T02:35:02;8.73;;;6.87;;
3755;SDS011;1893;52.526;13.360;2022-08-05T02:37:33;6.23;;;5.60;;
3755;SDS011;1893;52.526;13.360;2022-08-05T02:40:02;9.83;;;6.43;;
3755;SDS011;1893;52.526;13.360;2022-08-05T02:42:29;7.50;;;5.90;;
3755;SDS011;1893;52.526;13.360;2022-08-05T02:44:56;13.50;;;5.83;;
3755;SDS011;1893;52.526;13.360;2022-08-05T02:47:24;6.80;;;6.20;;
3755;SDS011;1893;52.526;13.360;2022-08-05T02:49:51;8.93;;;5.63;;
3755;SDS011;1893;52.526;13.360;2022-08-05T02:52:17;9.00;;;6.83;;
3755;SDS011;1893;52.526;13.360;2022-08-05T02:54:44;14.03;;;5.37;;
3755;SDS011;1893;52.526;13.360;2022-08-05T02:57:13;6.40;;;5.20;;
3755;SDS011;1893;52.526;13.360;2022-08-05T02:59:41;7.90;;;5.27;;
3755;SDS011;1893;52.526;13.360;2022-08-05T03:02:10;6.73;;;6.13;;
3755;SDS011;1893;52.526;13.360;2022-08-05T03:04:37;5.77;;;5.27;;
3755;SDS011;1893;52.526;13.360;2022-08-05T03:07:04;6.53;;;5.90;;
3755;SDS011;1893;52.526;13.360;2022-08-05T03:09:30;8.53;;;6.23;;
3755;SDS011;1893;52.526;13.360;2022-08-05T03:11:56;7.27;;;5.63;;
3755;SDS011;1893;52.526;13.360;2022-08-05T03:14:22;6.23;;;5.63;;
3755;SDS011;1893;52.526;13.360;2022-08-05T03:16:48;5.57;;;5.17;;
3755;SDS011;1893;52.526;13.360;2022-08-05T03:19:13;7.10;;;5.20;;
3755;SDS011;1893;52.526;13.360;2022-08-05T03:21:39;7.70;;;5.90;;
3755;SDS011;1893;52.526;13.360;2022-08-05T03:24:05;5.57;;;5.27;;
3755;SDS011;1893;52.526;13.360;2022-08-05T03:26:31;8.97;;;4.77;;
3755;SDS011;1893;52.526;13.360;2022-08-05T03:28:57;8.37;;;5.37;;
3755;SDS011;1893;52.526;13.360;2022-08-05T03:31:23;11.43;;;5.63;;
3755;SDS011;1893;52.526;13.360;2022-08-05T03:33:50;10.60;;;5.60;;
3755;SDS011;1893;52.526;13.360;2022-08-05T03:36:16;5.77;;;5.10;;
3755;SDS011;1893;52.526;13.360;2022-08-05T03:38:42;8.57;;;5.43;;
3755;SDS011;1893;52.526;13.360;2022-08-05T03:41:08;6.00;;;5.40;;
3755;SDS011;1893;52.526;13.360;2022-08-05T03:43:33;9.13;;;6.33;;
3755;SDS011;1893;52.526;13.360;2022-08-05T03:45:59;6.17;;;5.57;;
3755;SDS011;1893;52.526;13.360;2022-08-05T03:48:26;9.77;;;6.20;;
3755;SDS011;1893;52.526;13.360;2022-08-05T03:50:57;13.23;;;5.97;;
3755;SDS011;1893;52.526;13.360;2022-08-05T03:56:30;6.03;;;4.87;;
3755;SDS011;1893;52.526;13.360;2022-08-05T03:59:06;6.73;;;5.90;;
3755;SDS011;1893;52.526;13.360;2022-08-05T04:01:36;9.70;;;5.27;;
3755;SDS011;1893;52.526;13.360;2022-08-05T04:04:06;5.67;;;5.17;;
3755;SDS011;1893;52.526;13.360;2022-08-05T04:06:33;8.20;;;6.33;;
3755;SDS011;1893;52.526;13.360;2022-08-05T04:08:59;9.93;;;6.90;;
3755;SDS011;1893;52.526;13.360;2022-08-05T04:11:26;9.27;;;6.20;;
3755;SDS011;1893;52.526;13.360;2022-08-05T04:13:52;8.63;;;5.70;;
3755;SDS011;1893;52.526;13.360;2022-08-05T04:16:18;6.30;;;5.20;;
3755;SDS011;1893;52.526;13.360;2022-08-05T04:18:44;8.47;;;5.93;;
3755;SDS011;1893;52.526;13.360;2022-08-05T04:21:10;6.67;;;6.07;;
3755;SDS011;1893;52.526;13.360;2022-08-05T04:23:36;5.53;;;5.03;;
3755;SDS011;1893;52.526;13.360;2022-08-05T04:26:03;11.10;;;6.63;;
3755;SDS011;1893;52.526;13.360;2022-08-05T04:28:28;6.63;;;5.87;;
3755;SDS011;1893;52.526;13.360;2022-08-05T04:30:54;6.13;;;5.60;;
3755;SDS011;1893;52.526;13.360;2022-08-05T04:33:20;11.00;;;6.67;;
3755;SDS011;1893;52.526;13.360;2022-08-05T04:35:46;11.80;;;5.70;;
3755;SDS011;1893;52.526;13.360;2022-08-05T04:38:11;7.00;;;6.30;;
3755;SDS011;1893;52.526;13.360;2022-08-05T04:40:37;6.47;;;5.97;;
3755;SDS011;1893;52.526;13.360;2022-08-05T04:43:05;6.80;;;5.27;;
3755;SDS011;1893;52.526;13.360;2022-08-05T04:45:30;8.63;;;5.83;;
3755;SDS011;1893;52.526;13.360;2022-08-05T04:50:29;7.40;;;5.97;;
3755;SDS011;1893;52.526;13.360;2022-08-05T04:52:55;13.13;;;6.40;;
3755;SDS011;1893;52.526;13.360;2022-08-05T04:55:21;6.77;;;6.17;;
3755;SDS011;1893;52.526;13.360;2022-08-05T04:57:46;10.07;;;5.40;;
3755;SDS011;1893;52.526;13.360;2022-08-05T05:00:12;7.00;;;6.30;;
3755;SDS011;1893;52.526;13.360;2022-08-05T05:02:38;6.27;;;5.60;;
3755;SDS011;1893;52.526;13.360;2022-08-05T05:05:04;6.57;;;5.93;;
3755;SDS011;1893;52.526;13.360;2022-08-05T05:07:30;5.93;;;5.40;;
3755;SDS011;1893;52.526;13.360;2022-08-05T05:09:56;10.80;;;6.07;;
3755;SDS011;1893;52.526;13.360;2022-08-05T05:12:21;11.50;;;6.10;;
3755;SDS011;1893;52.526;13.360;2022-08-05T05:14:48;7.47;;;5.90;;
3755;SDS011;1893;52.526;13.360;2022-08-05T05:17:13;6.93;;;6.47;;
3755;SDS011;1893;52.526;13.360;2022-08-05T05:19:39;8.50;;;6.23;;
3755;SDS011;1893;52.526;13.360;2022-08-05T05:22:05;14.17;;;6.77;;
3755;SDS011;1893;52.526;13.360;2022-08-05T05:24:31;7.80;;;5.50;;
3755;SDS011;1893;52.526;13.360;2022-08-05T05:26:56;7.10;;;5.40;;
3755;SDS011;1893;52.526;13.360;2022-08-05T05:29:22;8.70;;;6.57;;
3755;SDS011;1893;52.526;13.360;2022-08-05T05:31:48;8.07;;;6.80;;
3755;SDS011;1893;52.526;13.360;2022-08-05T05:34:13;28.40;;;7.13;;
3755;SDS011;1893;52.526;13.360;2022-08-05T05:36:39;13.43;;;6.53;;
3755;SDS011;1893;52.526;13.360;2022-08-05T05:39:04;11.40;;;6.50;;
3755;SDS011;1893;52.526;13.360;2022-08-05T05:41:30;7.20;;;6.33;;
3755;SDS011;1893;52.526;13.360;2022-08-05T05:43:56;8.53;;;6.17;;
3755;SDS011;1893;52.526;13.360;2022-08-05T05:46:21;6.00;;;5.50;;
3755;SDS011;1893;52.526;13.360;2022-08-05T05:48:47;6.53;;;5.93;;
3755;SDS011;1893;52.526;13.360;2022-08-05T05:51:22;6.03;;;5.50;;
3755;SDS011;1893;52.526;13.360;2022-08-05T05:53:49;6.40;;;5.57;;
3755;SDS011;1893;52.526;13.360;2022-08-05T05:56:15;7.90;;;6.07;;
3755;SDS011;1893;52.526;13.360;2022-08-05T05:58:44;7.40;;;6.67;;
3755;SDS011;1893;52.526;13.360;2022-08-05T06:01:13;6.60;;;6.00;;
3755;SDS011;1893;52.526;13.360;2022-08-05T06:03:41;8.73;;;5.43;;
3755;SDS011;1893;52.526;13.360;2022-08-05T06:06:07;6.80;;;5.50;;
3755;SDS011;1893;52.526;13.360;2022-08-05T06:08:33;9.00;;;6.43;;
3755;SDS011;1893;52.526;13.360;2022-08-05T06:10:59;6.53;;;5.57;;
3755;SDS011;1893;52.526;13.360;2022-08-05T06:13:25;9.43;;;6.23;;
3755;SDS011;1893;52.526;13.360;2022-08-05T06:15:50;5.33;;;4.93;;
3755;SDS011;1893;52.526;13.360;2022-08-05T06:18:16;5.83;;;5.23;;
3755;SDS011;1893;52.526;13.360;2022-08-05T06:20:41;6.47;;;5.90;;
3755;SDS011;1893;52.526;13.360;2022-08-05T06:23:07;5.80;;;5.40;;
3755;SDS011;1893;52.526;13.360;2022-08-05T06:25:32;7.43;;;5.97;;
3755;SDS011;1893;52.526;13.360;2022-08-05T06:27:58;8.13;;;6.80;;
3755;SDS011;1893;52.526;13.360;2022-08-05T06:30:23;6.23;;;5.33;;
3755;SDS011;1893;52.526;13.360;2022-08-05T06:32:50;6.23;;;4.43;;
3755;SDS011;1893;52.526;13.360;2022-08-05T06:35:16;4.77;;;4.37;;
3755;SDS011;1893;52.526;13.360;2022-08-05T06:37:42;6.63;;;4.90;;
3755;SDS011;1893;52.526;13.360;2022-08-05T06:40:08;5.27;;;4.77;;
3755;SDS011;1893;52.526;13.360;2022-08-05T06:42:35;6.60;;;6.10;;
3755;SDS011;1893;52.526;13.360;2022-08-05T06:45:01;5.87;;;5.27;;
3755;SDS011;1893;52.526;13.360;2022-08-05T06:47:26;4.40;;;4.10;;
3755;SDS011;1893;52.526;13.360;2022-08-05T06:49:52;6.17;;;4.83;;
3755;SDS011;1893;52.526;13.360;2022-08-05T06:52:17;6.43;;;4.93;;
3755;SDS011;1893;52.526;13.360;2022-08-05T06:54:43;4.97;;;4.60;;
3755;SDS011;1893;52.526;13.360;2022-08-05T06:57:08;5.20;;;4.07;;
3755;SDS011;1893;52.526;13.360;2022-08-05T06:59:36;6.13;;;4.40;;
3755;SDS011;1893;52.526;13.360;2022-08-05T07:02:01;7.73;;;4.87;;
3755;SDS011;1893;52.526;13.360;2022-08-05T07:04:27;4.70;;;4.30;;
3755;SDS011;1893;52.526;13.360;2022-08-05T07:06:52;5.00;;;4.60;;
3755;SDS011;1893;52.526;13.360;2022-08-05T07:09:18;5.50;;;3.70;;
3755;SDS011;1893;52.526;13.360;2022-08-05T07:11:43;4.90;;;3.90;;
3755;SDS011;1893;52.526;13.360;2022-08-05T07:14:09;4.27;;;3.60;;
3755;SDS011;1893;52.526;13.360;2022-08-05T07:16:53;5.50;;;3.20;;
3755;SDS011;1893;52.526;13.360;2022-08-05T07:19:23;6.10;;;3.60;;
3755;SDS011;1893;52.526;13.360;2022-08-05T07:21:49;4.50;;;4.10;;
3755;SDS011;1893;52.526;13.360;2022-08-05T07:24:16;5.00;;;3.73;;
3755;SDS011;1893;52.526;13.360;2022-08-05T07:26:42;3.67;;;3.37;;
3755;SDS011;1893;52.526;13.360;2022-08-05T07:29:08;9.50;;;4.03;;
3755;SDS011;1893;52.526;13.360;2022-08-05T07:31:34;3.73;;;3.43;;
3755;SDS011;1893;52.526;13.360;2022-08-05T07:33:59;6.30;;;4.00;;
3755;SDS011;1893;52.526;13.360;2022-08-05T07:36:25;4.37;;;4.07;;
3755;SDS011;1893;52.526;13.360;2022-08-05T07:38:51;4.73;;;3.97;;
3755;SDS011;1893;52.526;13.360;2022-08-05T07:41:18;7.43;;;4.67;;
3755;SDS011;1893;52.526;13.360;2022-08-05T07:43:46;4.97;;;4.07;;
3755;SDS011;1893;52.526;13.360;2022-08-05T07:46:12;4.90;;;4.50;;
3755;SDS011;1893;52.526;13.360;2022-08-05T07:48:38;6.20;;;3.80;;
3755;SDS011;1893;52.526;13.360;2022-08-05T07:51:04;4.17;;;3.87;;
3755;SDS011;1893;52.526;13.360;2022-08-05T07:53:29;3.93;;;3.43;;
3755;SDS011;1893;52.526;13.360;2022-08-05T07:55:55;4.00;;;3.70;;
3755;SDS011;1893;52.526;13.360;2022-08-05T07:58:21;7.53;;;4.27;;
3755;SDS011;1893;52.526;13.360;2022-08-05T08:00:46;7.93;;;4.67;;
3755;SDS011;1893;52.526;13.360;2022-08-05T08:03:13;6.00;;;3.60;;
3755;SDS011;1893;52.526;13.360;2022-08-05T08:05:39;4.93;;;4.43;;
3755;SDS011;1893;52.526;13.360;2022-08-05T08:08:09;6.80;;;4.20;;
3755;SDS011;1893;52.526;13.360;2022-08-05T08:10:35;5.33;;;3.50;;
3755;SDS011;1893;52.526;13.360;2022-08-05T08:13:00;3.50;;;3.30;;
3755;SDS011;1893;52.526;13.360;2022-08-05T08:15:27;4.03;;;3.70;;
3755;SDS011;1893;52.526;13.360;2022-08-05T08:17:53;7.63;;;4.53;;
3755;SDS011;1893;52.526;13.360;2022-08-05T08:20:21;4.60;;;4.17;;
3755;SDS011;1893;52.526;13.360;2022-08-05T08:22:55;8.70;;;4.27;;
3755;SDS011;1893;52.526;13.360;2022-08-05T08:25:23;4.30;;;3.90;;
3755;SDS011;1893;52.526;13.360;2022-08-05T08:27:49;7.10;;;3.70;;
3755;SDS011;1893;52.526;13.360;2022-08-05T08:30:15;4.80;;;4.37;;
3755;SDS011;1893;52.526;13.360;2022-08-05T08:32:40;4.90;;;4.40;;
3755;SDS011;1893;52.526;13.360;2022-08-05T08:35:06;4.10;;;3.80;;
3755;SDS011;1893;52.526;13.360;2022-08-05T08:37:32;3.53;;;3.23;;
3755;SDS011;1893;52.526;13.360;2022-08-05T08:39:58;3.83;;;3.40;;
3755;SDS011;1893;52.526;13.360;2022-08-05T08:42:24;4.20;;;3.90;;
3755;SDS011;1893;52.526;13.360;2022-08-05T08:44:51;4.00;;;3.60;;
3755;SDS011;1893;52.526;13.360;2022-08-05T08:47:20;4.00;;;3.73;;
3755;SDS011;1893;52.526;13.360;2022-08-05T08:49:47;3.93;;;3.63;;
3755;SDS011;1893;52.526;13.360;2022-08-05T08:52:22;6.43;;;2.80;;
3755;SDS011;1893;52.526;13.360;2022-08-05T08:54:54;4.23;;;3.37;;
3755;SDS011;1893;52.526;13.360;2022-08-05T08:57:20;4.50;;;3.23;;
3755;SDS011;1893;52.526;13.360;2022-08-05T08:59:46;4.33;;;3.93;;
3755;SDS011;1893;52.526;13.360;2022-08-05T09:02:12;3.30;;;3.00;;
3755;SDS011;1893;52.526;13.360;2022-08-05T09:04:39;4.77;;;3.60;;
3755;SDS011;1893;52.526;13.360;2022-08-05T09:07:05;4.53;;;3.50;;
3755;SDS011;1893;52.526;13.360;2022-08-05T09:09:32;2.73;;;2.53;;
3755;SDS011;1893;52.526;13.360;2022-08-05T09:11:59;3.57;;;3.27;;
3755;SDS011;1893;52.526;13.360;2022-08-05T09:14:32;3.80;;;3.40;;
3755;SDS011;1893;52.526;13.360;2022-08-05T09:16:59;4.77;;;3.30;;
3755;SDS011;1893;52.526;13.360;2022-08-05T09:19:25;3.30;;;2.80;;
3755;SDS011;1893;52.526;13.360;2022-08-05T09:21:50;20.73;;;4.13;;
3755;SDS011;1893;52.526;13.360;2022-08-05T09:24:16;3.47;;;3.17;;
3755;SDS011;1893;52.526;13.360;2022-08-05T09:26:45;4.00;;;2.80;;
3755;SDS011;1893;52.526;13.360;2022-08-05T09:29:12;4.80;;;3.27;;
3755;SDS011;1893;52.526;13.360;2022-08-05T09:31:38;5.00;;;3.07;;
3755;SDS011;1893;52.526;13.360;2022-08-05T09:34:07;3.63;;;3.43;;
3755;SDS011;1893;52.526;13.360;2022-08-05T09:36:44;6.10;;;3.20;;
3755;SDS011;1893;52.526;13.360;2022-08-05T09:39:15;5.23;;;3.23;;
3755;SDS011;1893;52.526;13.360;2022-08-05T09:41:54;3.17;;;2.87;;
3755;SDS011;1893;52.526;13.360;2022-08-05T09:47:07;2.77;;;2.57;;
3755;SDS011;1893;52.526;13.360;2022-08-05T09:49:47;4.40;;;3.53;;
3755;SDS011;1893;52.526;13.360;2022-08-05T09:52:28;3.20;;;2.90;;
3755;SDS011;1893;52.526;13.360;2022-08-05T09:57:41;2.83;;;2.63;;
3755;SDS011;1893;52.526;13.360;2022-08-05T10:00:12;3.80;;;3.47;;
3755;SDS011;1893;52.526;13.360;2022-08-05T10:02:40;6.40;;;5.83;;
3755;SDS011;1893;52.526;13.360;2022-08-05T10:05:11;3.47;;;3.27;;
3755;SDS011;1893;52.526;13.360;2022-08-05T10:08:20;6.53;;;3.90;;
3755;SDS011;1893;52.526;13.360;2022-08-05T10:13:01;5.07;;;3.87;;
3755;SDS011;1893;52.526;13.360;2022-08-05T10:15:36;5.37;;;3.93;;
3755;SDS011;1893;52.526;13.360;2022-08-05T10:20:31;4.30;;;3.90;;
3755;SDS011;1893;52.526;13.360;2022-08-05T10:22:58;4.63;;;4.07;;
3755;SDS011;1893;52.526;13.360;2022-08-05T10:25:24;3.90;;;3.03;;
3755;SDS011;1893;52.526;13.360;2022-08-05T10:27:50;3.87;;;3.13;;
3755;SDS011;1893;52.526;13.360;2022-08-05T10:30:17;3.80;;;3.50;;
3755;SDS011;1893;52.526;13.360;2022-08-05T10:32:43;5.30;;;4.30;;
3755;SDS011;1893;52.526;13.360;2022-08-05T10:35:10;3.93;;;3.60;;
3755;SDS011;1893;52.526;13.360;2022-08-05T10:37:35;4.27;;;3.77;;
3755;SDS011;1893;52.526;13.360;2022-08-05T10:40:02;8.60;;;5.07;;
3755;SDS011;1893;52.526;13.360;2022-08-05T10:42:32;3.70;;;3.40;;
3755;SDS011;1893;52.526;13.360;2022-08-05T10:45:05;4.73;;;4.33;;
3755;SDS011;1893;52.526;13.360;2022-08-05T10:47:32;7.27;;;6.53;;
3755;SDS011;1893;52.526;13.360;2022-08-05T10:50:02;11.50;;;7.43;;
3755;SDS011;1893;52.526;13.360;2022-08-05T10:52:40;4.80;;;4.50;;
3755;SDS011;1893;52.526;13.360;2022-08-05T10:55:09;7.60;;;5.40;;
3755;SDS011;1893;52.526;13.360;2022-08-05T10:57:37;6.07;;;4.00;;
3755;SDS011;1893;52.526;13.360;2022-08-05T11:00:08;4.83;;;3.43;;
3755;SDS011;1893;52.526;13.360;2022-08-05T11:05:27;5.20;;;4.70;;
3755;SDS011;1893;52.526;13.360;2022-08-05T11:07:57;6.80;;;4.97;;
3755;SDS011;1893;52.526;13.360;2022-08-05T11:10:24;4.83;;;4.20;;
3755;SDS011;1893;52.526;13.360;2022-08-05T11:12:50;9.67;;;4.23;;
3755;SDS011;1893;52.526;13.360;2022-08-05T11:15:17;5.53;;;5.03;;
3755;SDS011;1893;52.526;13.360;2022-08-05T11:17:45;6.20;;;3.30;;
3755;SDS011;1893;52.526;13.360;2022-08-05T11:33:25;6.50;;;3.40;;
3755;SDS011;1893;52.526;13.360;2022-08-05T11:35:51;3.83;;;3.53;;
3755;SDS011;1893;52.526;13.360;2022-08-05T11:38:17;4.60;;;2.87;;
3755;SDS011;1893;52.526;13.360;2022-08-05T11:43:28;2.80;;;2.60;;
3755;SDS011;1893;52.526;13.360;2022-08-05T11:45:54;3.23;;;2.83;;
3755;SDS011;1893;52.526;13.360;2022-08-05T11:48:20;3.70;;;3.30;;
3755;SDS011;1893;52.526;13.360;2022-08-05T11:50:46;2.80;;;2.60;;
3755;SDS011;1893;52.526;13.360;2022-08-05T11:53:13;3.87;;;2.77;;
3755;SDS011;1893;52.526;13.360;2022-08-05T11:55:51;6.47;;;2.90;;
3755;SDS011;1893;52.526;13.360;2022-08-05T11:58:34;4.70;;;3.00;;
3755;SDS011;1893;52.526;13.360;2022-08-05T12:01:04;3.20;;;2.43;;
3755;SDS011;1893;52.526;13.360;2022-08-05T12:03:53;2.63;;;2.43;;
3755;SDS011;1893;52.526;13.360;2022-08-05T12:06:21;3.60;;;2.60;;
3755;SDS011;1893;52.526;13.360;2022-08-05T12:08:53;3.33;;;2.60;;
3755;SDS011;1893;52.526;13.360;2022-08-05T12:11:29;2.70;;;2.50;;
3755;SDS011;1893;52.526;13.360;2022-08-05T12:13:56;3.30;;;3.00;;
3755;SDS011;1893;52.526;13.360;2022-08-05T12:16:24;3.27;;;3.07;;
3755;SDS011;1893;52.526;13.360;2022-08-05T12:18:56;4.43;;;2.80;;
3755;SDS011;1893;52.526;13.360;2022-08-05T12:21:26;2.97;;;2.77;;
3755;SDS011;1893;52.526;13.360;2022-08-05T12:26:22;2.77;;;2.57;;
3755;SDS011;1893;52.526;13.360;2022-08-05T12:28:48;3.97;;;3.77;;
3755;SDS011;1893;52.526;13.360;2022-08-05T12:31:14;3.80;;;3.50;;
3755;SDS011;1893;52.526;13.360;2022-08-05T12:33:40;2.97;;;2.77;;
3755;SDS011;1893;52.526;13.360;2022-08-05T12:36:07;3.63;;;3.43;;
3755;SDS011;1893;52.526;13.360;2022-08-05T12:38:37;3.17;;;2.93;;
3755;SDS011;1893;52.526;13.360;2022-08-05T12:41:06;3.17;;;2.90;;
3755;SDS011;1893;52.526;13.360;2022-08-05T12:43:33;4.30;;;2.80;;
3755;SDS011;1893;52.526;13.360;2022-08-05T12:45:59;2.50;;;2.30;;
3755;SDS011;1893;52.526;13.360;2022-08-05T12:48:24;2.90;;;2.60;;
3755;SDS011;1893;52.526;13.360;2022-08-05T12:53:42;2.80;;;2.60;;
3755;SDS011;1893;52.526;13.360;2022-08-05T12:56:45;3.00;;;2.80;;
3755;SDS011;1893;52.526;13.360;2022-08-05T13:01:40;3.10;;;2.80;;
3755;SDS011;1893;52.526;13.360;2022-08-05T13:04:08;3.00;;;2.80;;
3755;SDS011;1893;52.526;13.360;2022-08-05T13:06:43;4.17;;;2.77;;
3755;SDS011;1893;52.526;13.360;2022-08-05T13:09:12;3.90;;;3.10;;
3755;SDS011;1893;52.526;13.360;2022-08-05T13:11:39;2.97;;;2.80;;
3755;SDS011;1893;52.526;13.360;2022-08-05T13:14:10;2.60;;;2.40;;
3755;SDS011;1893;52.526;13.360;2022-08-05T13:16:45;2.97;;;2.77;;
3755;SDS011;1893;52.526;13.360;2022-08-05T13:19:12;3.10;;;2.90;;
3755;SDS011;1893;52.526;13.360;2022-08-05T13:21:38;3.00;;;2.77;;
3755;SDS011;1893;52.526;13.360;2022-08-05T13:24:04;3.13;;;2.80;;
3755;SDS011;1893;52.526;13.360;2022-08-05T13:26:30;2.83;;;2.60;;
3755;SDS011;1893;52.526;13.360;2022-08-05T13:28:56;4.63;;;2.40;;
3755;SDS011;1893;52.526;13.360;2022-08-05T13:31:22;5.60;;;2.90;;
3755;SDS011;1893;52.526;13.360;2022-08-05T13:33:47;2.70;;;2.50;;
3755;SDS011;1893;52.526;13.360;2022-08-05T13:36:13;3.87;;;2.80;;
3755;SDS011;1893;52.526;13.360;2022-08-05T13:38:38;3.27;;;3.07;;
3755;SDS011;1893;52.526;13.360;2022-08-05T13:41:04;2.67;;;2.27;;
3755;SDS011;1893;52.526;13.360;2022-08-05T13:43:30;2.90;;;2.70;;
3755;SDS011;1893;52.526;13.360;2022-08-05T13:45:55;4.60;;;3.00;;
3755;SDS011;1893;52.526;13.360;2022-08-05T13:48:21;2.80;;;2.60;;
3755;SDS011;1893;52.526;13.360;2022-08-05T13:50:46;3.77;;;3.20;;
3755;SDS011;1893;52.526;13.360;2022-08-05T13:53:12;3.40;;;3.10;;
3755;SDS011;1893;52.526;13.360;2022-08-05T13:55:37;4.30;;;2.60;;
3755;SDS011;1893;52.526;13.360;2022-08-05T13:58:03;6.20;;;3.10;;
3755;SDS011;1893;52.526;13.360;2022-08-05T14:00:28;3.80;;;3.13;;
3755;SDS011;1893;52.526;13.360;2022-08-05T14:02:55;3.13;;;2.90;;
3755;SDS011;1893;52.526;13.360;2022-08-05T14:05:21;3.43;;;2.90;;
3755;SDS011;1893;52.526;13.360;2022-08-05T14:07:46;4.47;;;3.20;;
3755;SDS011;1893;52.526;13.360;2022-08-05T14:10:13;3.80;;;3.33;;
3755;SDS011;1893;52.526;13.360;2022-08-05T14:12:41;4.03;;;3.60;;
3755;SDS011;1893;52.526;13.360;2022-08-05T14:15:07;5.37;;;3.30;;
3755;SDS011;1893;52.526;13.360;2022-08-05T14:17:33;3.50;;;3.20;;
3755;SDS011;1893;52.526;13.360;2022-08-05T14:19:59;4.47;;;4.17;;
3755;SDS011;1893;52.526;13.360;2022-08-05T14:22:25;3.30;;;3.00;;
3755;SDS011;1893;52.526;13.360;2022-08-05T14:24:51;3.47;;;3.27;;
3755;SDS011;1893;52.526;13.360;2022-08-05T14:27:17;11.43;;;3.70;;
3755;SDS011;1893;52.526;13.360;2022-08-05T14:29:43;4.03;;;3.73;;
3755;SDS011;1893;52.526;13.360;2022-08-05T14:32:09;3.50;;;3.30;;
3755;SDS011;1893;52.526;13.360;2022-08-05T14:34:35;6.40;;;3.90;;
3755;SDS011;1893;52.526;13.360;2022-08-05T14:37:02;10.00;;;3.37;;
3755;SDS011;1893;52.526;13.360;2022-08-05T14:39:28;2.87;;;2.70;;
3755;SDS011;1893;52.526;13.360;2022-08-05T14:41:53;5.03;;;4.57;;
3755;SDS011;1893;52.526;13.360;2022-08-05T14:44:19;4.10;;;3.70;;
3755;SDS011;1893;52.526;13.360;2022-08-05T14:46:44;4.63;;;4.30;;
3755;SDS011;1893;52.526;13.360;2022-08-05T14:49:10;4.00;;;3.70;;
3755;SDS011;1893;52.526;13.360;2022-08-05T14:51:36;4.37;;;3.17;;
3755;SDS011;1893;52.526;13.360;2022-08-05T14:54:03;5.53;;;4.13;;
3755;SDS011;1893;52.526;13.360;2022-08-05T14:56:29;5.10;;;4.10;;
3755;SDS011;1893;52.526;13.360;2022-08-05T14:58:54;4.40;;;4.10;;
3755;SDS011;1893;52.526;13.360;2022-08-05T15:01:20;5.00;;;4.47;;
3755;SDS011;1893;52.526;13.360;2022-08-05T15:03:46;4.50;;;4.10;;
3755;SDS011;1893;52.526;13.360;2022-08-05T15:06:11;4.50;;;4.20;;
3755;SDS011;1893;52.526;13.360;2022-08-05T15:08:37;4.67;;;4.30;;
3755;SDS011;1893;52.526;13.360;2022-08-05T15:11:02;5.87;;;4.50;;
3755;SDS011;1893;52.526;13.360;2022-08-05T15:13:28;4.60;;;3.90;;
3755;SDS011;1893;52.526;13.360;2022-08-05T15:15:54;4.57;;;4.27;;
3755;SDS011;1893;52.526;13.360;2022-08-05T15:18:19;5.53;;;4.47;;
3755;SDS011;1893;52.526;13.360;2022-08-05T15:20:45;5.50;;;5.10;;
3755;SDS011;1893;52.526;13.360;2022-08-05T15:23:11;5.73;;;4.90;;
3755;SDS011;1893;52.526;13.360;2022-08-05T15:25:37;4.60;;;4.20;;
3755;SDS011;1893;52.526;13.360;2022-08-05T15:28:04;4.43;;;4.07;;
3755;SDS011;1893;52.526;13.360;2022-08-05T15:30:31;5.07;;;4.57;;
3755;SDS011;1893;52.526;13.360;2022-08-05T15:32:58;5.03;;;4.70;;
3755;SDS011;1893;52.526;13.360;2022-08-05T15:35:24;4.90;;;4.50;;
3755;SDS011;1893;52.526;13.360;2022-08-05T15:37:51;8.40;;;5.20;;
3755;SDS011;1893;52.526;13.360;2022-08-05T15:40:16;8.27;;;4.60;;
3755;SDS011;1893;52.526;13.360;2022-08-05T15:42:42;7.20;;;6.13;;
3755;SDS011;1893;52.526;13.360;2022-08-05T15:45:08;6.00;;;4.97;;
3755;SDS011;1893;52.526;13.360;2022-08-05T15:47:35;5.03;;;4.63;;
3755;SDS011;1893;52.526;13.360;2022-08-05T15:50:02;6.20;;;4.40;;
3755;SDS011;1893;52.526;13.360;2022-08-05T15:52:28;5.00;;;4.50;;